Adelaide, California
Current Conditions -  °F | °C
As of 8:53 PM on Tuesday 25 Nov 2014 (Local Time) from KPRB Reporting Station
Clear Clear  
Wind Chill: 53°   Ceiling: Unl
Heat Index: 53°   Visibility: 10mi
Dew Point: 39°   Wind: 5mph
Humidity: 59%   Direction: 160°SSE
Pressure: 30.35"   Gusts: NA
Location:  35.6618°N, 120.707°W
Report Text: KPRB 260453Z AUTO 16004KT 10SM CLR 12/04 A3035 RMK AO2 SLP280 T01170039 TSNO
Loading
Personal Weather Stations






























Interactive Weather Map New forecast layout! Learn more

10-Day Weather Forecast

Advertisements
Track Severe Weather on mobile